KFSD/FSD METAR and TAF weather

Enter ICAO airport designator
Station Type Date Time Source
KFSD METAR 2023/01/28 06:56 UTC NOAA

KFSD 280656Z AUTO 09003KT 9SM BKN021 BKN031 OVC041 M08/M12 A3002 RMK AO2 SLP191 T10831117


Station Type Date Time Source
KFSD Decoded METAR 2023/01/28 06:56 UTC NOAA

SIOUX FALLS FOSS FIELD, SD, United States (KFSD) 43-35N 096-45W 434M
Jan 28, 2023 - 01:56 AM EST / 2023.01.28 0656 UTC
Wind: from the E (090 degrees) at 3 MPH (3 KT):0
Visibility: 9 mile(s):0
Sky conditions: overcast
Temperature: 17.1 F (-8.3 C)
Dew Point: 10.9 F (-11.7 C)
Relative Humidity: 76%
Pressure (altimeter): 30.02 in. Hg (1016 hPa)
ob: KFSD 280656Z AUTO 09003KT 9SM BKN021 BKN031 OVC041 M08/M12 A3002 RMK AO2 SLP191 T10831117
cycle: 7

Station Type Date Time Source
KFSD TAF 2023/01/28 06:22 UTC NOAA

TAF KFSD 280520Z 2806/2906 05007KT P6SM OVC060
FM280700 05009KT 1 1/2SM -SN BR OVC025
FM280900 04014G21KT 3/4SM -SN BR OVC015
FM281500 03015G23KT 4SM -SN BLSN OVC022
FM281800 02015G23KT P6SM BKN060

Example: see airport list